ORMM/BSR METAR and TAF weather

Enter ICAO airport designator
Station Type Date Time Source
ORMM METAR 2020/09/19 04:00 UTC NOAA

ORMM 190400Z 28008KT CAVOK 26/09 Q1005 NOSIG


Station Type Date Time Source
ORMM Decoded METAR 2020/09/19 04:00 UTC NOAA

Station name not available
Sep 19, 2020 - 12:00 AM EDT / 2020.09.19 0400 UTC
Wind: from the W (280 degrees) at 9 MPH (8 KT):0
Visibility: greater than 7 mile(s):0
Temperature: 78 F (26 C)
Dew Point: 48 F (9 C)
Relative Humidity: 34%
Pressure (altimeter): 29.68 in. Hg (1005 hPa)
ob: ORMM 190400Z 28008KT CAVOK 26/09 Q1005 NOSIG
cycle: 4

Station Type Date Time Source
ORMM TAF 2020/09/19 06:05 UTC NOAA

TAF ORMM 190400Z 1906/2006 26008KT CAVOK
TEMPO 1909/1915 30012G22KT 6000 NSC

Example: see airport list